Gwinn, Michigan
Current Conditions -  °F | °C
As of 8:45 AM on Monday 22 Dec 2014 (Local Time) from KSAW Reporting Station
Haze Haze  
Wind Chill: 25°   Ceiling: 800
Heat Index: 34°   Visibility: 4mi
Dew Point: 32°   Wind: 13mph
Humidity: 93%   Direction: 170°S
Pressure: 29.9"   Gusts: 20mph
Location:  46.28°N, 87.44°W
Report Text: KSAW 221345Z 17011G17KT 4SM BR OVC008 01/00 A2990
Loading
Personal Weather Stations






























Interactive Weather Map New forecast layout! Learn more

10-Day Weather Forecast

Advertisements
Track Severe Weather on mobile